createdAt,value
2023-02-24T00:03:13.984Z,7.50
2023-02-24T00:06:23.588Z,7.55
2023-02-24T00:09:31.001Z,7.56
2023-02-24T00:12:33.916Z,7.50
2023-02-24T00:15:38.287Z,7.58
2023-02-24T00:18:43.730Z,7.55
2023-02-24T00:21:49.484Z,7.48
2023-02-24T00:24:57.417Z,7.41
2023-02-24T00:28:03.609Z,7.42
2023-02-24T00:31:11.034Z,7.35
2023-02-24T00:34:13.936Z,7.18
2023-02-24T00:37:18.156Z,7.07
2023-02-24T00:40:24.523Z,6.98
2023-02-24T00:43:31.102Z,6.94
2023-02-24T00:46:38.450Z,6.95
2023-02-24T00:49:43.335Z,6.98
2023-02-24T00:52:51.146Z,6.86
2023-02-24T00:55:59.871Z,6.80
2023-02-24T00:59:05.826Z,6.71
2023-02-24T01:02:08.737Z,6.59
2023-02-24T01:05:14.452Z,6.51
2023-02-24T01:08:23.577Z,6.53
2023-02-24T01:12:05.105Z,6.53
2023-02-24T01:15:09.366Z,6.45
2023-02-24T01:18:13.300Z,6.48
2023-02-24T01:21:24.600Z,6.54
2023-02-24T01:24:38.261Z,6.57
2023-02-24T01:27:42.089Z,6.52
2023-02-24T01:30:46.979Z,6.57
2023-02-24T01:33:55.594Z,6.62
2023-02-24T01:37:00.683Z,6.61
2023-02-24T01:40:22.047Z,6.59
2023-02-24T01:43:30.150Z,6.64
2023-02-24T01:46:37.177Z,6.71
2023-02-24T01:49:44.225Z,6.65
2023-02-24T01:52:53.047Z,6.65
2023-02-24T01:56:02.487Z,6.64
2023-02-24T01:59:05.962Z,6.59
2023-02-24T02:02:10.820Z,6.59
2023-02-24T02:05:17.193Z,6.56
2023-02-24T02:08:26.119Z,6.58
2023-02-24T02:11:33.301Z,6.60
2023-02-24T02:14:37.825Z,6.60
2023-02-24T02:17:47.775Z,6.63
2023-02-24T02:21:12.370Z,6.67
2023-02-24T02:24:18.138Z,6.63
2023-02-24T02:27:37.513Z,6.69
2023-02-24T02:31:01.461Z,6.78
2023-02-24T02:34:09.393Z,6.73
2023-02-24T02:37:16.988Z,6.77
2023-02-24T02:40:28.469Z,6.86
2023-02-24T02:43:40.889Z,6.91
2023-02-24T02:47:03.746Z,6.88
2023-02-24T02:50:25.013Z,6.86
2023-02-24T02:53:32.853Z,6.87
2023-02-24T02:56:39.829Z,6.87
2023-02-24T02:59:51.853Z,6.81
2023-02-24T03:02:57.006Z,6.77
2023-02-24T03:06:06.648Z,6.82
2023-02-24T03:09:20.449Z,6.89
2023-02-24T03:12:27.332Z,6.85
2023-02-24T03:15:35.643Z,6.86
2023-02-24T03:18:46.007Z,6.79
2023-02-24T03:21:56.460Z,6.83
2023-02-24T03:25:02.034Z,6.92
2023-02-24T03:28:18.033Z,6.94
2023-02-24T03:31:29.563Z,6.93
2023-02-24T03:34:43.554Z,6.90
2023-02-24T03:37:51.261Z,6.88
2023-02-24T03:40:57.002Z,6.86
2023-02-24T03:44:03.218Z,6.88
2023-02-24T03:47:06.664Z,6.82
2023-02-24T03:50:15.698Z,6.84
2023-02-24T03:53:51.153Z,6.81
2023-02-24T03:57:13.810Z,6.80
2023-02-24T04:00:24.373Z,6.78
2023-02-24T04:03:46.030Z,6.78
2023-02-24T04:06:55.033Z,6.84
2023-02-24T04:10:05.670Z,6.82
2023-02-24T04:13:23.007Z,6.84
2023-02-24T04:16:49.300Z,6.82
2023-02-24T04:19:55.709Z,6.80
2023-02-24T04:23:15.665Z,6.82
2023-02-24T04:26:20.569Z,6.89
2023-02-24T04:29:24.937Z,6.88
2023-02-24T04:32:33.993Z,6.86
2023-02-24T04:35:42.909Z,6.81
2023-02-24T04:38:46.208Z,6.80
2023-02-24T04:41:53.031Z,6.72
2023-02-24T04:45:01.915Z,6.60
2023-02-24T04:48:13.664Z,6.58
2023-02-24T04:51:26.609Z,6.60
2023-02-24T04:54:32.698Z,6.67
2023-02-24T04:57:40.189Z,6.69
2023-02-24T05:00:45.773Z,6.63
2023-02-24T05:03:50.293Z,6.66
2023-02-24T05:06:57.796Z,6.61
2023-02-24T05:10:04.224Z,6.66
2023-02-24T05:13:07.395Z,6.65
2023-02-24T05:16:11.756Z,6.65
2023-02-24T05:19:35.003Z,6.60
2023-02-24T05:22:41.470Z,6.61
2023-02-24T05:25:47.431Z,6.65
2023-02-24T05:28:53.190Z,6.63
2023-02-24T05:32:00.293Z,6.67
2023-02-24T05:35:08.379Z,6.67
2023-02-24T05:38:12.591Z,6.56
2023-02-24T05:41:20.816Z,6.61
2023-02-24T05:44:28.016Z,6.60
2023-02-24T05:47:34.593Z,6.62
2023-02-24T05:50:39.907Z,6.62
2023-02-24T05:53:44.530Z,6.66
2023-02-24T05:56:47.102Z,6.59
2023-02-24T05:59:53.785Z,6.61
2023-02-24T06:03:14.358Z,6.69
2023-02-24T06:06:19.183Z,6.66
2023-02-24T06:09:24.562Z,6.61
2023-02-24T06:12:32.557Z,6.64
2023-02-24T06:15:37.708Z,6.62
2023-02-24T06:18:42.746Z,6.61
2023-02-24T06:21:46.144Z,6.71
2023-02-24T06:24:52.106Z,6.77
2023-02-24T06:27:57.038Z,6.87
2023-02-24T06:31:05.890Z,6.88
2023-02-24T06:34:29.044Z,6.89
2023-02-24T06:37:32.720Z,6.91
2023-02-24T06:40:35.619Z,6.98
2023-02-24T06:43:42.400Z,7.04
2023-02-24T06:46:48.375Z,6.97
2023-02-24T06:49:51.890Z,6.92
2023-02-24T06:53:04.458Z,6.96
2023-02-24T06:56:15.331Z,7.10
2023-02-24T06:59:22.143Z,7.09
2023-02-24T07:02:30.788Z,7.12
2023-02-24T07:05:38.988Z,7.27
2023-02-24T07:08:48.413Z,7.42
2023-02-24T07:11:59.279Z,7.53
2023-02-24T07:15:04.692Z,7.61
2023-02-24T07:18:15.717Z,7.70
2023-02-24T07:21:21.734Z,7.79
2023-02-24T07:24:36.347Z,7.96
2023-02-24T07:27:39.706Z,8.04
2023-02-24T07:30:47.436Z,8.22
2023-02-24T07:33:55.011Z,8.31
2023-02-24T07:37:00.040Z,8.54
2023-02-24T07:40:11.200Z,8.65
2023-02-24T07:43:17.292Z,8.88
2023-02-24T07:46:25.848Z,8.94
2023-02-24T07:49:30.570Z,8.99
2023-02-24T07:52:34.026Z,9.08
2023-02-24T07:55:38.973Z,9.19
2023-02-24T07:58:45.127Z,9.18
2023-02-24T08:01:51.978Z,9.26
2023-02-24T08:04:56.430Z,9.33
2023-02-24T08:08:00.254Z,9.42
2023-02-24T08:11:05.501Z,9.49
2023-02-24T08:14:14.647Z,9.56
2023-02-24T08:17:23.239Z,9.62
2023-02-24T08:20:30.645Z,9.79
2023-02-24T08:23:36.479Z,10.13
2023-02-24T08:26:45.513Z,10.13
2023-02-24T08:30:03.645Z,9.89
2023-02-24T08:33:08.406Z,9.78
2023-02-24T08:36:13.382Z,9.56
2023-02-24T08:39:19.808Z,9.59
2023-02-24T08:42:32.407Z,9.78
2023-02-24T08:45:39.802Z,9.90
2023-02-24T08:48:49.254Z,10.10
2023-02-24T08:51:53.996Z,10.36
2023-02-24T08:54:59.751Z,10.53
2023-02-24T08:58:03.449Z,10.87
2023-02-24T09:01:06.658Z,10.78
2023-02-24T09:04:12.382Z,10.80
2023-02-24T09:07:23.161Z,10.93
2023-02-24T09:10:26.961Z,11.23
2023-02-24T09:13:34.251Z,11.18
2023-02-24T09:16:54.553Z,11.29
2023-02-24T09:20:16.239Z,11.09
2023-02-24T09:23:30.707Z,11.21
2023-02-24T09:26:43.477Z,11.32
2023-02-24T09:29:52.577Z,11.45
2023-02-24T09:33:02.677Z,11.32
2023-02-24T09:36:22.005Z,11.33
2023-02-24T09:39:24.278Z,11.32
2023-02-24T09:42:36.089Z,11.59
2023-02-24T09:45:40.705Z,11.73
2023-02-24T09:48:51.903Z,11.75
2023-02-24T09:52:01.226Z,12.00
2023-02-24T09:55:20.320Z,12.22
2023-02-24T09:58:43.927Z,12.42
2023-02-24T10:01:53.878Z,12.56
2023-02-24T10:05:30.494Z,12.57
2023-02-24T10:08:36.953Z,12.69
2023-02-24T10:12:05.969Z,12.87
2023-02-24T10:15:40.622Z,12.94
2023-02-24T10:19:02.020Z,13.06
2023-02-24T10:22:29.088Z,13.10
2023-02-24T10:25:40.840Z,13.14
2023-02-24T10:28:54.506Z,13.01
2023-02-24T10:32:08.828Z,13.12
2023-02-24T10:35:20.422Z,13.27
2023-02-24T10:38:23.132Z,13.28
2023-02-24T10:41:30.749Z,13.43
2023-02-24T10:44:42.173Z,13.48
2023-02-24T10:47:57.564Z,13.51
2023-02-24T10:51:09.504Z,13.46
2023-02-24T10:54:45.348Z,13.63
2023-02-24T10:58:08.416Z,13.64
2023-02-24T11:01:43.303Z,13.58
2023-02-24T11:05:04.882Z,13.73
2023-02-24T11:08:37.668Z,13.88
2023-02-24T11:11:59.560Z,14.06
2023-02-24T11:15:22.961Z,14.20
2023-02-24T11:18:28.207Z,14.00
2023-02-24T11:21:32.436Z,13.81
2023-02-24T11:24:40.454Z,14.05
2023-02-24T11:27:43.994Z,14.14
2023-02-24T11:30:54.730Z,14.06
2023-02-24T11:34:18.585Z,14.23
2023-02-24T11:37:23.513Z,14.51
2023-02-24T11:40:29.384Z,14.57
2023-02-24T11:43:35.635Z,14.54
2023-02-24T11:46:46.468Z,14.54
2023-02-24T11:50:06.212Z,14.62
2023-02-24T11:53:29.288Z,14.49
2023-02-24T11:56:43.308Z,14.43
2023-02-24T11:59:50.261Z,14.27
2023-02-24T12:03:13.503Z,13.96
2023-02-24T12:06:28.688Z,14.05
2023-02-24T12:09:37.039Z,14.29
2023-02-24T12:13:00.812Z,14.33
2023-02-24T12:16:09.998Z,14.50
2023-02-24T12:19:21.109Z,14.55
2023-02-24T12:22:28.104Z,14.69
2023-02-24T12:25:37.136Z,14.73
2023-02-24T12:28:57.514Z,14.88
2023-02-24T12:32:01.169Z,15.07
2023-02-24T12:35:14.465Z,15.16
2023-02-24T12:38:36.088Z,15.28
2023-02-24T12:41:47.169Z,15.19
2023-02-24T12:44:59.682Z,15.38
2023-02-24T12:48:21.834Z,15.56
2023-02-24T12:51:45.403Z,15.43
2023-02-24T12:54:59.461Z,15.35
2023-02-24T12:58:09.284Z,15.41
2023-02-24T13:01:32.632Z,15.24
2023-02-24T13:04:59.399Z,15.15
2023-02-24T13:08:14.996Z,15.19
2023-02-24T13:11:41.312Z,15.35
2023-02-24T13:14:47.287Z,15.30
2023-02-24T13:17:53.552Z,15.11
2023-02-24T13:21:05.491Z,15.18
2023-02-24T13:24:20.706Z,15.16
2023-02-24T13:27:24.738Z,15.12
2023-02-24T13:30:37.868Z,14.93
2023-02-24T13:33:42.374Z,14.76
2023-02-24T13:36:50.082Z,14.46
2023-02-24T13:39:55.936Z,14.18
2023-02-24T13:42:58.296Z,14.06
2023-02-24T13:46:05.124Z,14.14
2023-02-24T13:49:26.000Z,14.14
2023-02-24T13:52:54.854Z,14.00
2023-02-24T13:56:14.370Z,13.92
2023-02-24T13:59:42.858Z,13.80
2023-02-24T14:02:49.642Z,13.74
2023-02-24T14:05:55.390Z,13.81
2023-02-24T14:09:06.053Z,13.93
2023-02-24T14:12:18.796Z,13.95
2023-02-24T14:15:23.504Z,13.93
2023-02-24T14:18:27.593Z,13.94
2023-02-24T14:21:39.004Z,13.92
2023-02-24T14:24:43.839Z,13.89
2023-02-24T14:27:49.418Z,13.91
2023-02-24T14:30:54.562Z,14.01
2023-02-24T14:34:03.593Z,14.09
2023-02-24T14:37:08.487Z,14.20
2023-02-24T14:40:15.920Z,14.31
2023-02-24T14:43:21.862Z,14.34
2023-02-24T14:46:26.822Z,14.31
2023-02-24T14:49:31.711Z,14.34
2023-02-24T14:52:37.377Z,14.19
2023-02-24T14:55:43.283Z,14.08
2023-02-24T14:58:57.061Z,13.96
2023-02-24T15:02:00.068Z,13.98
2023-02-24T15:05:02.904Z,14.01
2023-02-24T15:08:06.345Z,14.02
2023-02-24T15:11:21.602Z,14.01
2023-02-24T15:14:34.840Z,13.88
2023-02-24T15:17:41.604Z,13.81
2023-02-24T15:20:45.627Z,13.65
2023-02-24T15:23:49.747Z,13.64
2023-02-24T15:26:53.836Z,13.60
2023-02-24T15:30:04.181Z,13.54
2023-02-24T15:33:13.275Z,13.53
2023-02-24T15:36:21.460Z,13.48
2023-02-24T15:39:29.439Z,13.47
2023-02-24T15:42:35.226Z,13.34
2023-02-24T15:45:38.931Z,13.32
2023-02-24T15:48:51.842Z,13.23
2023-02-24T15:51:56.696Z,13.17
2023-02-24T15:55:04.070Z,13.03
2023-02-24T15:58:13.681Z,12.95
2023-02-24T16:01:17.029Z,12.89
2023-02-24T16:04:19.826Z,12.80
2023-02-24T16:07:29.541Z,12.76
2023-02-24T16:10:36.423Z,12.64
2023-02-24T16:13:38.952Z,12.54
2023-02-24T16:16:43.833Z,12.53
2023-02-24T16:19:46.512Z,12.37
2023-02-24T16:22:49.607Z,12.30
2023-02-24T16:25:59.144Z,12.19
2023-02-24T16:29:02.274Z,12.16
2023-02-24T16:32:05.104Z,12.09
2023-02-24T16:35:13.235Z,11.97
2023-02-24T16:38:18.180Z,11.93
2023-02-24T16:41:20.623Z,11.90
2023-02-24T16:44:23.886Z,11.83
2023-02-24T16:47:27.955Z,11.72
2023-02-24T16:50:39.262Z,11.58
2023-02-24T16:53:42.602Z,11.50
2023-02-24T16:56:46.737Z,11.28
2023-02-24T16:59:49.544Z,11.07
2023-02-24T17:02:54.182Z,10.98
2023-02-24T17:05:56.227Z,10.86
2023-02-24T17:09:00.003Z,10.76
2023-02-24T17:12:03.460Z,10.68
2023-02-24T17:15:06.035Z,10.58
2023-02-24T17:18:09.994Z,10.46
2023-02-24T17:21:15.239Z,10.36
2023-02-24T17:24:20.649Z,10.24
2023-02-24T17:27:24.526Z,10.15
2023-02-24T17:30:33.867Z,10.06
2023-02-24T17:33:36.929Z,9.93
2023-02-24T17:36:41.656Z,9.87
2023-02-24T17:39:47.301Z,9.81
2023-02-24T17:42:56.746Z,9.81
2023-02-24T17:46:02.407Z,9.71
2023-02-24T17:49:07.840Z,9.66
2023-02-24T17:52:11.432Z,9.67
2023-02-24T17:55:14.511Z,9.63
2023-02-24T17:58:17.822Z,9.60
2023-02-24T18:01:21.142Z,9.52
2023-02-24T18:04:23.389Z,9.57
2023-02-24T18:07:25.694Z,9.62
2023-02-24T18:10:29.392Z,9.69
2023-02-24T18:13:33.691Z,9.75
2023-02-24T18:16:37.080Z,9.74
2023-02-24T18:19:40.246Z,9.80
2023-02-24T18:22:51.063Z,9.85
2023-02-24T18:25:57.833Z,9.92
2023-02-24T18:29:01.838Z,10.03
2023-02-24T18:32:05.862Z,10.06
2023-02-24T18:35:09.857Z,10.06
2023-02-24T18:38:13.891Z,10.03
2023-02-24T18:41:18.614Z,10.10
2023-02-24T18:44:21.528Z,10.19
2023-02-24T18:47:26.705Z,10.22
2023-02-24T18:50:30.458Z,10.25
2023-02-24T18:53:39.506Z,10.28
2023-02-24T18:56:44.107Z,10.36
2023-02-24T18:59:49.505Z,10.34
2023-02-24T19:02:54.256Z,10.28
2023-02-24T19:05:56.875Z,10.24
2023-02-24T19:09:03.780Z,10.21
2023-02-24T19:12:09.224Z,10.09
2023-02-24T19:15:13.628Z,9.98
2023-02-24T19:18:17.674Z,9.88
2023-02-24T19:21:21.263Z,9.76
2023-02-24T19:24:25.411Z,9.67
2023-02-24T19:27:28.861Z,9.59
2023-02-24T19:30:32.258Z,9.58
2023-02-24T19:33:35.088Z,9.57
2023-02-24T19:36:37.887Z,9.55
2023-02-24T19:39:40.155Z,9.59
2023-02-24T19:42:43.091Z,9.58
2023-02-24T19:45:49.291Z,9.55
2023-02-24T19:48:53.992Z,9.51
2023-02-24T19:51:57.074Z,9.41
2023-02-24T19:55:00.379Z,9.32
2023-02-24T19:58:03.463Z,9.24
2023-02-24T20:01:09.960Z,9.16
2023-02-24T20:04:13.333Z,9.16
2023-02-24T20:07:15.768Z,9.11
2023-02-24T20:10:21.769Z,9.11
2023-02-24T20:13:24.159Z,9.02
2023-02-24T20:16:33.306Z,8.98
2023-02-24T20:19:35.861Z,8.97
2023-02-24T20:22:38.325Z,8.91
2023-02-24T20:25:49.723Z,8.83
2023-02-24T20:28:52.101Z,8.77
2023-02-24T20:31:55.575Z,8.67
2023-02-24T20:34:59.605Z,8.68
2023-02-24T20:38:02.717Z,8.70
2023-02-24T20:41:05.814Z,8.67
2023-02-24T20:44:09.001Z,8.72
2023-02-24T20:47:12.801Z,8.68
2023-02-24T20:50:16.587Z,8.60
2023-02-24T20:53:18.775Z,8.58
2023-02-24T20:56:23.813Z,8.60
2023-02-24T20:59:26.579Z,8.51
2023-02-24T21:02:29.045Z,8.45
2023-02-24T21:05:32.984Z,8.40
2023-02-24T21:08:36.406Z,8.41
2023-02-24T21:11:39.022Z,8.43
2023-02-24T21:14:44.111Z,8.44
2023-02-24T21:17:55.395Z,8.38
2023-02-24T21:21:02.533Z,8.31
2023-02-24T21:24:07.618Z,8.19
2023-02-24T21:27:10.603Z,8.14
2023-02-24T21:30:13.589Z,8.09
2023-02-24T21:33:16.956Z,8.08
2023-02-24T21:36:30.399Z,7.98
2023-02-24T21:39:33.862Z,8.03
2023-02-24T21:42:38.288Z,8.01
2023-02-24T21:45:40.528Z,8.01
2023-02-24T21:48:43.489Z,8.04
2023-02-24T21:51:51.862Z,8.05
2023-02-24T21:54:54.617Z,7.98
2023-02-24T21:57:59.236Z,8.02
2023-02-24T22:01:08.078Z,7.88
2023-02-24T22:04:13.111Z,7.88
2023-02-24T22:07:19.622Z,7.86
2023-02-24T22:10:26.041Z,7.89
2023-02-24T22:13:36.180Z,7.89
2023-02-24T22:16:39.070Z,7.90
2023-02-24T22:19:43.505Z,7.96
2023-02-24T22:22:47.130Z,8.03
2023-02-24T22:25:49.472Z,7.98
2023-02-24T22:28:51.692Z,7.93
2023-02-24T22:31:56.060Z,7.96
2023-02-24T22:35:01.510Z,7.84
2023-02-24T22:38:04.244Z,7.83
2023-02-24T22:41:08.964Z,7.87
2023-02-24T22:44:13.485Z,7.79
2023-02-24T22:47:19.435Z,7.71
2023-02-24T22:50:22.740Z,7.70
2023-02-24T22:53:29.307Z,7.66
2023-02-24T22:56:34.454Z,7.63
2023-02-24T22:59:38.556Z,7.58
2023-02-24T23:02:42.237Z,7.63
2023-02-24T23:05:58.554Z,7.60
2023-02-24T23:09:01.852Z,7.62
2023-02-24T23:12:04.349Z,7.60
2023-02-24T23:15:09.160Z,7.55
2023-02-24T23:18:17.473Z,7.53
2023-02-24T23:21:25.644Z,7.52
2023-02-24T23:24:29.554Z,7.50
2023-02-24T23:27:32.070Z,7.47
2023-02-24T23:30:36.923Z,7.44
2023-02-24T23:33:44.806Z,7.37
2023-02-24T23:36:47.955Z,7.33
2023-02-24T23:39:51.222Z,7.31
2023-02-24T23:42:59.308Z,7.29
2023-02-24T23:46:10.984Z,7.26
2023-02-24T23:49:16.762Z,7.25
2023-02-24T23:52:20.031Z,7.18
2023-02-24T23:55:23.865Z,7.10
2023-02-24T23:58:31.354Z,6.99
